createdAt,value
2023-03-08T00:00:32.219Z,99.90
2023-03-08T00:03:02.770Z,99.90
2023-03-08T00:05:30.787Z,99.90
2023-03-08T00:07:58.750Z,99.90
2023-03-08T00:10:26.673Z,99.90
2023-03-08T00:12:54.603Z,99.90
2023-03-08T00:15:22.535Z,99.90
2023-03-08T00:17:50.576Z,99.90
2023-03-08T00:20:21.054Z,99.90
2023-03-08T00:22:48.985Z,99.90
2023-03-08T00:25:17.407Z,99.90
2023-03-08T00:27:45.390Z,99.90
2023-03-08T00:30:14.605Z,99.90
2023-03-08T00:32:42.819Z,99.90
2023-03-08T00:35:11.555Z,99.90
2023-03-08T00:37:40.970Z,99.90
2023-03-08T00:40:11.058Z,99.90
2023-03-08T00:42:39.874Z,99.90
2023-03-08T00:45:09.176Z,99.90
2023-03-08T00:47:37.609Z,99.90
2023-03-08T00:50:06.358Z,99.90
2023-03-08T00:52:34.334Z,99.90
2023-03-08T00:55:03.876Z,99.90
2023-03-08T00:57:33.291Z,99.90
2023-03-08T01:00:01.321Z,99.90
2023-03-08T01:02:29.314Z,99.90
2023-03-08T01:04:58.106Z,99.90
2023-03-08T01:07:28.483Z,99.90
2023-03-08T01:09:56.820Z,99.90
2023-03-08T01:12:26.490Z,99.90
2023-03-08T01:14:54.601Z,99.90
2023-03-08T01:17:22.612Z,99.90
2023-03-08T01:19:50.626Z,99.90
2023-03-08T01:22:18.639Z,99.90
2023-03-08T01:24:47.091Z,99.90
2023-03-08T01:27:16.228Z,99.90
2023-03-08T01:29:45.837Z,99.90
2023-03-08T01:32:14.306Z,99.90
2023-03-08T01:34:42.338Z,99.90
2023-03-08T01:37:10.313Z,99.90
2023-03-08T01:39:38.303Z,99.90
2023-03-08T01:42:07.854Z,99.90
2023-03-08T01:47:36.119Z,99.90
2023-03-08T01:50:07.222Z,99.90
2023-03-08T01:52:39.484Z,99.90
2023-03-08T01:55:08.865Z,99.90
2023-03-08T01:57:40.190Z,99.90
2023-03-08T02:00:17.728Z,99.90
2023-03-08T02:02:53.702Z,99.90
2023-03-08T02:05:22.888Z,99.90
2023-03-08T02:07:50.840Z,99.90
2023-03-08T02:10:19.526Z,99.90
2023-03-08T02:12:48.737Z,99.90
2023-03-08T02:15:20.129Z,99.90
2023-03-08T02:17:49.744Z,99.90
2023-03-08T02:20:21.968Z,99.90
2023-03-08T02:22:53.196Z,99.90
2023-03-08T02:25:23.792Z,1.00
2023-03-08T02:27:52.532Z,1.00
2023-03-08T02:30:26.073Z,1.00
2023-03-08T02:32:54.091Z,1.00
2023-03-08T02:35:22.248Z,1.00
2023-03-08T02:37:51.644Z,1.00
2023-03-08T02:40:20.070Z,1.00
2023-03-08T02:42:48.045Z,1.00
2023-03-08T02:45:16.119Z,1.00
2023-03-08T02:47:44.122Z,1.00
2023-03-08T02:50:12.840Z,1.00
2023-03-08T02:52:40.838Z,1.00
2023-03-08T02:55:10.969Z,1.00
2023-03-08T02:57:38.992Z,1.00
2023-03-08T03:00:08.490Z,1.00
2023-03-08T03:02:36.697Z,1.00
2023-03-08T03:05:05.737Z,1.00
2023-03-08T03:07:37.112Z,1.00
2023-03-08T03:10:05.990Z,1.00
2023-03-08T03:12:35.428Z,1.00
2023-03-08T03:15:03.556Z,1.00
2023-03-08T03:17:32.010Z,1.00
2023-03-08T03:20:00.201Z,1.00
2023-03-08T03:22:29.233Z,1.00
2023-03-08T03:24:57.220Z,1.00
2023-03-08T03:27:25.392Z,1.00
2023-03-08T03:29:54.781Z,1.00
2023-03-08T03:32:22.866Z,1.00
2023-03-08T03:34:50.901Z,1.00
2023-03-08T03:37:18.919Z,1.00
2023-03-08T03:39:47.315Z,1.00
2023-03-08T03:42:15.434Z,1.00
2023-03-08T03:44:43.371Z,1.00
2023-03-08T03:47:12.714Z,1.00
2023-03-08T03:49:40.718Z,1.00
2023-03-08T03:52:08.733Z,1.00
2023-03-08T03:54:36.821Z,1.00
2023-03-08T03:57:05.232Z,1.00
2023-03-08T03:59:34.039Z,1.00
2023-03-08T04:02:02.048Z,1.00
2023-03-08T04:04:31.387Z,1.00
2023-03-08T04:06:59.334Z,1.00
2023-03-08T04:09:27.329Z,1.00
2023-03-08T04:11:55.309Z,1.00
2023-03-08T04:14:23.383Z,1.00
2023-03-08T04:16:51.594Z,1.00
2023-03-08T04:19:19.679Z,1.00
2023-03-08T04:21:49.070Z,1.00
2023-03-08T04:24:17.082Z,1.00
2023-03-08T04:26:45.129Z,1.00
2023-03-08T04:29:13.111Z,1.00
2023-03-08T04:31:41.154Z,1.00
2023-03-08T04:34:09.220Z,1.00
2023-03-08T04:36:39.371Z,1.00
2023-03-08T04:39:08.759Z,1.00
2023-03-08T04:41:36.710Z,1.00
2023-03-08T04:44:04.803Z,1.00
2023-03-08T04:46:32.858Z,1.00
2023-03-08T04:49:00.855Z,1.00
2023-03-08T04:51:28.937Z,1.00
2023-03-08T04:53:57.061Z,1.00
2023-03-08T04:56:26.521Z,1.00
2023-03-08T04:58:54.577Z,1.00
2023-03-08T05:01:24.143Z,1.00
2023-03-08T05:03:53.449Z,1.00
2023-03-08T05:06:22.252Z,1.00
2023-03-08T05:08:50.405Z,1.00
2023-03-08T05:11:21.195Z,1.00
2023-03-08T05:13:50.891Z,1.00
2023-03-08T05:16:18.875Z,1.00
2023-03-08T05:18:47.002Z,1.00
2023-03-08T05:21:16.815Z,11.40
2023-03-08T05:23:45.021Z,2.90
2023-03-08T05:26:15.740Z,14.10
2023-03-08T05:28:43.937Z,23.70
2023-03-08T05:31:16.009Z,25.70
2023-03-08T05:33:46.445Z,34.20
2023-03-08T05:36:15.662Z,43.10
2023-03-08T05:38:44.078Z,55.40
2023-03-08T05:41:15.024Z,59.60
2023-03-08T05:43:43.398Z,72.50
2023-03-08T05:46:14.918Z,87.90
2023-03-08T05:48:43.518Z,97.70
2023-03-08T05:51:13.254Z,99.90
2023-03-08T05:53:41.697Z,99.90
2023-03-08T05:56:11.940Z,99.90
2023-03-08T05:58:42.618Z,99.90
2023-03-08T06:01:16.790Z,99.90
2023-03-08T06:03:44.856Z,99.90
2023-03-08T06:06:13.342Z,99.90
2023-03-08T06:08:41.455Z,99.90
2023-03-08T06:11:09.981Z,99.90
2023-03-08T06:13:38.099Z,99.90
2023-03-08T06:16:07.109Z,99.90
2023-03-08T06:18:37.905Z,99.90
2023-03-08T06:21:07.642Z,99.90
2023-03-08T06:23:36.798Z,99.90
2023-03-08T06:26:05.792Z,99.90
2023-03-08T06:28:34.076Z,99.90
2023-03-08T06:31:02.322Z,1.00
2023-03-08T06:33:32.675Z,1.00
2023-03-08T06:36:03.689Z,1.00
2023-03-08T06:38:33.589Z,1.00
2023-03-08T06:41:01.871Z,1.00
2023-03-08T06:43:30.526Z,1.00
2023-03-08T06:45:58.900Z,1.00
2023-03-08T06:48:26.954Z,1.00
2023-03-08T06:50:54.937Z,1.00
2023-03-08T06:53:24.348Z,1.00
2023-03-08T06:55:52.360Z,1.00
2023-03-08T06:58:20.740Z,1.00
2023-03-08T07:00:48.817Z,1.00
2023-03-08T07:03:16.899Z,1.00
2023-03-08T07:05:44.920Z,1.00
2023-03-08T07:08:12.959Z,1.00
2023-03-08T07:10:42.328Z,1.00
2023-03-08T07:13:10.343Z,1.00
2023-03-08T07:15:41.487Z,1.00
2023-03-08T07:18:09.502Z,1.00
2023-03-08T07:20:37.545Z,1.00
2023-03-08T07:23:05.600Z,1.00
2023-03-08T07:25:33.618Z,1.00
2023-03-08T07:28:02.979Z,1.00
2023-03-08T07:30:30.997Z,1.00
2023-03-08T07:32:59.045Z,1.00
2023-03-08T07:35:27.122Z,1.00
2023-03-08T07:37:55.122Z,1.00
2023-03-08T07:40:23.366Z,1.00
2023-03-08T07:42:51.439Z,1.00
2023-03-08T07:45:20.946Z,1.00
2023-03-08T07:47:52.432Z,1.00
2023-03-08T07:50:21.447Z,1.00
2023-03-08T07:52:49.551Z,1.00
2023-03-08T07:55:18.336Z,1.00
2023-03-08T07:57:46.354Z,1.00
2023-03-08T08:00:15.231Z,1.00
2023-03-08T08:02:44.677Z,1.00
2023-03-08T08:05:12.800Z,1.00
2023-03-08T08:07:40.971Z,1.00
2023-03-08T08:10:09.935Z,1.00
2023-03-08T08:12:37.945Z,1.00
2023-03-08T08:15:06.667Z,1.00
2023-03-08T08:17:34.748Z,1.00
2023-03-08T08:20:06.710Z,1.00
2023-03-08T08:22:36.583Z,1.00
2023-03-08T08:25:06.011Z,1.00
2023-03-08T08:27:34.057Z,1.00
2023-03-08T08:30:02.129Z,1.00
2023-03-08T08:32:30.256Z,1.00
2023-03-08T08:35:00.223Z,1.00
2023-03-08T08:37:30.904Z,99.90
2023-03-08T08:39:58.966Z,99.90
2023-03-08T08:42:27.700Z,99.90
2023-03-08T08:44:56.009Z,99.90
2023-03-08T08:47:23.992Z,99.90
2023-03-08T08:49:53.099Z,99.90
2023-03-08T08:52:21.053Z,99.90
2023-03-08T08:54:50.435Z,99.90
2023-03-08T08:57:18.392Z,99.90
2023-03-08T08:59:47.380Z,99.90
2023-03-08T09:02:15.701Z,99.90
2023-03-08T09:04:43.852Z,99.90
2023-03-08T09:07:11.979Z,99.90
2023-03-08T09:09:40.056Z,99.90
2023-03-08T09:12:09.915Z,99.90
2023-03-08T09:14:37.915Z,99.90
2023-03-08T09:17:07.326Z,99.90
2023-03-08T09:19:36.575Z,99.90
2023-03-08T09:22:05.255Z,71.80
2023-03-08T09:24:33.673Z,41.30
2023-03-08T09:27:01.710Z,1.00
2023-03-08T09:29:31.076Z,1.00
2023-03-08T09:31:59.640Z,1.00
2023-03-08T09:34:27.895Z,1.00
2023-03-08T09:36:55.897Z,1.00
2023-03-08T09:39:23.915Z,1.00
2023-03-08T09:41:55.447Z,1.00
2023-03-08T09:44:48.775Z,1.00
2023-03-08T09:47:28.951Z,1.00
2023-03-08T09:50:04.884Z,1.00
2023-03-08T09:52:38.355Z,1.00
2023-03-08T09:55:13.530Z,1.00
2023-03-08T09:57:48.183Z,99.90
2023-03-08T10:00:23.222Z,99.90
2023-03-08T10:03:03.965Z,99.90
2023-03-08T10:05:38.857Z,99.90
2023-03-08T10:08:12.726Z,99.90
2023-03-08T10:10:53.363Z,99.90
2023-03-08T10:13:32.109Z,99.90
2023-03-08T10:16:12.969Z,99.90
2023-03-08T10:18:48.164Z,99.90
2023-03-08T10:21:19.463Z,99.90
2023-03-08T10:23:49.926Z,99.90
2023-03-08T10:26:18.860Z,99.90
2023-03-08T10:28:47.056Z,99.90
2023-03-08T10:31:25.168Z,90.50
2023-03-08T10:34:04.266Z,56.50
2023-03-08T10:36:32.392Z,1.00
2023-03-08T10:39:06.312Z,1.00
2023-03-08T10:41:41.175Z,29.80
2023-03-08T10:44:16.638Z,24.60
2023-03-08T10:46:50.197Z,12.80
2023-03-08T10:49:26.819Z,30.10
2023-03-08T10:51:58.442Z,28.20
2023-03-08T10:54:27.756Z,1.00
2023-03-08T10:56:59.165Z,1.00
2023-03-08T10:59:32.625Z,1.00
2023-03-08T11:02:03.317Z,1.00
2023-03-08T11:04:32.824Z,1.00
2023-03-08T11:07:11.569Z,1.00
2023-03-08T11:09:39.567Z,1.00
2023-03-08T11:12:07.838Z,1.00
2023-03-08T11:14:36.151Z,1.00
2023-03-08T11:17:14.987Z,1.00
2023-03-08T11:19:59.885Z,1.00
2023-03-08T11:22:52.890Z,1.00
2023-03-08T11:25:34.945Z,1.00
2023-03-08T11:28:21.357Z,1.00
2023-03-08T11:31:05.240Z,1.00
2023-03-08T11:33:58.505Z,1.00
2023-03-08T11:36:31.938Z,1.00
2023-03-08T11:39:05.662Z,1.00
2023-03-08T11:41:42.147Z,1.00
2023-03-08T11:44:32.343Z,1.00
2023-03-08T11:47:46.065Z,1.00
2023-03-08T11:50:22.806Z,1.00
2023-03-08T11:53:02.423Z,1.00
2023-03-08T11:55:39.325Z,1.00
2023-03-08T11:58:15.346Z,1.00
2023-03-08T12:00:45.834Z,1.00
2023-03-08T12:03:17.558Z,1.00
2023-03-08T12:05:50.365Z,1.00
2023-03-08T12:08:23.730Z,1.00
2023-03-08T12:10:56.977Z,1.00
2023-03-08T12:13:29.982Z,1.00
2023-03-08T12:16:03.360Z,1.00
2023-03-08T12:18:38.806Z,1.00
2023-03-08T12:21:21.333Z,1.00
2023-03-08T12:23:52.980Z,1.00
2023-03-08T12:26:27.041Z,1.00
2023-03-08T12:28:59.923Z,1.00
2023-03-08T12:31:30.596Z,1.00
2023-03-08T12:34:00.544Z,1.00
2023-03-08T12:36:39.820Z,1.00
2023-03-08T12:39:26.394Z,1.00
2023-03-08T12:42:16.607Z,1.00
2023-03-08T12:44:45.094Z,1.00
2023-03-08T12:47:22.759Z,1.00
2023-03-08T12:49:53.559Z,1.00
2023-03-08T12:52:28.612Z,1.00
2023-03-08T12:55:01.008Z,1.00
2023-03-08T12:57:29.880Z,1.00
2023-03-08T12:59:59.231Z,1.00
2023-03-08T13:02:31.592Z,1.00
2023-03-08T13:05:03.073Z,1.00
2023-03-08T13:07:38.196Z,1.00
2023-03-08T13:10:19.847Z,1.00
2023-03-08T13:13:37.380Z,1.00
2023-03-08T13:16:19.304Z,1.00
2023-03-08T13:18:49.654Z,1.00
2023-03-08T13:21:30.399Z,1.00
2023-03-08T13:24:03.969Z,1.00
2023-03-08T13:26:58.370Z,1.00
2023-03-08T13:29:31.506Z,1.00
2023-03-08T13:32:06.195Z,1.00
2023-03-08T13:34:36.211Z,1.00
2023-03-08T13:37:04.382Z,1.00
2023-03-08T13:39:33.454Z,1.00
2023-03-08T13:42:11.476Z,1.00
2023-03-08T13:44:39.985Z,1.00
2023-03-08T13:47:21.289Z,1.00
2023-03-08T13:49:51.837Z,1.00
2023-03-08T13:52:22.985Z,1.00
2023-03-08T13:54:53.782Z,1.00
2023-03-08T13:57:26.468Z,1.00
2023-03-08T13:59:56.970Z,1.00
2023-03-08T14:02:28.117Z,1.00
2023-03-08T14:04:57.227Z,1.00
2023-03-08T14:07:26.823Z,1.00
2023-03-08T14:09:54.925Z,1.00
2023-03-08T14:12:27.490Z,1.00
2023-03-08T14:14:58.321Z,1.00
2023-03-08T14:17:29.539Z,1.00
2023-03-08T14:19:59.913Z,1.00
2023-03-08T14:22:39.153Z,1.00
2023-03-08T14:25:18.470Z,1.00
2023-03-08T14:27:48.269Z,1.00
2023-03-08T14:30:17.498Z,1.00
2023-03-08T14:32:59.241Z,1.00
2023-03-08T14:35:29.785Z,1.00
2023-03-08T14:37:58.914Z,1.00
2023-03-08T14:40:31.585Z,1.00
2023-03-08T14:43:04.689Z,1.00
2023-03-08T14:45:37.575Z,28.10
2023-03-08T14:48:24.703Z,11.40
2023-03-08T14:50:58.042Z,32.10
2023-03-08T14:53:30.285Z,42.90
2023-03-08T14:55:58.998Z,49.20
2023-03-08T14:58:31.397Z,37.40
2023-03-08T15:01:00.939Z,18.00
2023-03-08T15:03:29.654Z,62.40
2023-03-08T15:05:58.477Z,78.80
2023-03-08T15:08:26.743Z,76.00
2023-03-08T15:10:54.971Z,92.00
2023-03-08T15:13:24.527Z,88.70
2023-03-08T15:15:53.924Z,99.90
2023-03-08T15:18:22.073Z,99.90
2023-03-08T15:20:52.504Z,99.90
2023-03-08T15:23:23.271Z,99.90
2023-03-08T15:25:52.012Z,99.90
2023-03-08T15:28:22.199Z,99.90
2023-03-08T15:30:52.744Z,99.90
2023-03-08T15:33:23.250Z,99.90
2023-03-08T15:35:52.319Z,99.90
2023-03-08T15:38:21.484Z,99.90
2023-03-08T15:40:49.504Z,99.90
2023-03-08T15:43:17.482Z,99.90
2023-03-08T15:45:45.500Z,99.90
2023-03-08T15:48:15.516Z,99.90
2023-03-08T15:50:45.825Z,99.90
2023-03-08T15:53:20.606Z,99.90
2023-03-08T15:55:54.130Z,99.90
2023-03-08T15:58:22.080Z,99.90
2023-03-08T16:00:51.918Z,99.90
2023-03-08T16:03:26.020Z,99.90
2023-03-08T16:05:56.185Z,99.90
2023-03-08T16:08:25.849Z,99.90
2023-03-08T16:10:53.871Z,99.90
2023-03-08T16:13:23.019Z,99.90
2023-03-08T16:15:51.091Z,99.90
2023-03-08T16:18:19.085Z,99.90
2023-03-08T16:20:47.170Z,99.90
2023-03-08T16:23:16.597Z,99.90
2023-03-08T16:25:44.689Z,99.90
2023-03-08T16:28:13.128Z,99.90
2023-03-08T16:30:42.843Z,99.90
2023-03-08T16:33:10.841Z,99.90
2023-03-08T16:35:38.870Z,99.90
2023-03-08T16:38:06.899Z,99.90
2023-03-08T16:40:39.896Z,99.90
2023-03-08T16:43:08.449Z,99.90
2023-03-08T16:45:38.176Z,99.90
2023-03-08T16:48:07.064Z,99.90
2023-03-08T16:50:35.479Z,99.90
2023-03-08T16:53:03.627Z,99.90
2023-03-08T16:55:37.922Z,99.90
2023-03-08T16:58:05.926Z,99.90
2023-03-08T17:00:34.070Z,99.90
2023-03-08T17:03:02.252Z,99.90
2023-03-08T17:05:30.276Z,99.90
2023-03-08T17:07:58.309Z,99.90
2023-03-08T17:10:26.435Z,99.90
2023-03-08T17:12:55.798Z,99.90
2023-03-08T17:15:23.850Z,1.00
2023-03-08T17:17:52.148Z,1.00
2023-03-08T17:20:20.418Z,1.00
2023-03-08T17:22:48.863Z,1.00
2023-03-08T17:25:17.043Z,1.00
2023-03-08T17:27:45.323Z,1.00
2023-03-08T17:30:16.040Z,1.00
2023-03-08T17:32:44.196Z,1.00
2023-03-08T17:35:12.367Z,1.00
2023-03-08T17:37:41.766Z,1.00
2023-03-08T17:40:11.808Z,1.00
2023-03-08T17:42:39.948Z,1.00
2023-03-08T17:45:08.886Z,1.00
2023-03-08T17:47:38.917Z,1.00
2023-03-08T17:50:08.904Z,1.00
2023-03-08T17:52:37.517Z,1.00
2023-03-08T17:55:06.073Z,1.00
2023-03-08T17:57:36.008Z,1.00
2023-03-08T18:00:06.570Z,1.00
2023-03-08T18:02:34.944Z,1.00
2023-03-08T18:05:04.400Z,1.00
2023-03-08T18:07:32.675Z,1.00
2023-03-08T18:10:01.958Z,1.00
2023-03-08T18:12:30.712Z,1.00
2023-03-08T18:14:59.119Z,1.00
2023-03-08T18:17:27.296Z,1.00
2023-03-08T18:19:55.438Z,1.00
2023-03-08T18:22:25.071Z,1.00
2023-03-08T18:24:53.521Z,1.00
2023-03-08T18:27:21.637Z,1.00
2023-03-08T18:29:49.835Z,1.00
2023-03-08T18:32:17.904Z,1.00
2023-03-08T18:34:46.088Z,1.00
2023-03-08T18:37:14.141Z,1.00
2023-03-08T18:39:43.553Z,1.00
2023-03-08T18:42:11.586Z,1.00
2023-03-08T18:44:39.680Z,1.00
2023-03-08T18:47:07.807Z,1.00
2023-03-08T18:49:40.104Z,1.00
2023-03-08T18:52:08.252Z,1.00
2023-03-08T18:54:38.528Z,1.00
2023-03-08T18:57:07.914Z,1.00
2023-03-08T18:59:36.753Z,1.00
2023-03-08T19:02:05.032Z,1.00
2023-03-08T19:04:33.062Z,1.00
2023-03-08T19:07:01.297Z,1.00
2023-03-08T19:09:29.334Z,1.00
2023-03-08T19:11:57.375Z,1.00
2023-03-08T19:14:26.773Z,1.00
2023-03-08T19:16:54.874Z,1.00
2023-03-08T19:19:23.009Z,1.00
2023-03-08T19:21:51.055Z,1.00
2023-03-08T19:24:21.145Z,1.00
2023-03-08T19:26:52.670Z,1.00
2023-03-08T19:29:22.254Z,1.00
2023-03-08T19:31:53.512Z,1.00
2023-03-08T19:34:23.567Z,1.00
2023-03-08T19:36:52.490Z,1.00
2023-03-08T19:39:23.442Z,1.00
2023-03-08T19:41:52.955Z,1.00
2023-03-08T19:44:21.919Z,1.00
2023-03-08T19:46:51.862Z,1.00
2023-03-08T19:49:22.660Z,1.00
2023-03-08T19:51:52.602Z,1.00
2023-03-08T19:54:21.694Z,1.00
2023-03-08T19:56:50.017Z,1.00
2023-03-08T19:59:18.201Z,1.00
2023-03-08T20:01:46.646Z,1.00
2023-03-08T20:04:15.993Z,1.00
2023-03-08T20:06:46.641Z,1.00
2023-03-08T20:09:18.269Z,1.00
2023-03-08T20:11:46.275Z,1.00
2023-03-08T20:14:14.331Z,1.00
2023-03-08T20:16:42.349Z,1.00
2023-03-08T20:19:10.337Z,1.00
2023-03-08T20:21:40.144Z,1.00
2023-03-08T20:24:08.415Z,1.00
2023-03-08T20:26:38.936Z,1.00
2023-03-08T20:29:07.101Z,1.00
2023-03-08T20:31:35.169Z,1.00
2023-03-08T20:34:03.413Z,1.00
2023-03-08T20:36:31.533Z,1.00
2023-03-08T20:39:01.986Z,1.00
2023-03-08T20:41:30.667Z,1.00
2023-03-08T20:43:59.027Z,1.00
2023-03-08T20:46:31.071Z,1.00
2023-03-08T20:48:59.816Z,1.00
2023-03-08T20:51:28.386Z,1.00
2023-03-08T20:53:57.386Z,1.00
2023-03-08T20:56:27.632Z,1.00
2023-03-08T20:58:57.881Z,1.00
2023-03-08T21:01:28.199Z,1.00
2023-03-08T21:03:56.434Z,1.00
2023-03-08T21:06:26.890Z,1.00
2023-03-08T21:08:55.710Z,1.00
2023-03-08T21:11:24.021Z,1.00
2023-03-08T21:13:56.638Z,1.00
2023-03-08T21:16:26.454Z,1.00
2023-03-08T21:18:56.793Z,1.00
2023-03-08T21:21:28.111Z,1.00
2023-03-08T21:24:01.932Z,1.00
2023-03-08T21:26:31.572Z,1.00
2023-03-08T21:29:02.904Z,1.00
2023-03-08T21:31:31.551Z,1.00
2023-03-08T21:34:02.134Z,1.00
2023-03-08T21:36:30.788Z,1.00
2023-03-08T21:39:00.058Z,1.00
2023-03-08T21:41:29.955Z,1.00
2023-03-08T21:43:58.652Z,1.00
2023-03-08T21:46:28.586Z,1.00
2023-03-08T21:48:57.527Z,1.00
2023-03-08T21:51:26.126Z,1.00
2023-03-08T21:53:54.701Z,1.00
2023-03-08T21:56:23.094Z,1.00
2023-03-08T21:58:51.239Z,1.00
2023-03-08T22:01:21.457Z,1.00
2023-03-08T22:03:51.820Z,1.00
2023-03-08T22:06:20.453Z,1.00
2023-03-08T22:08:48.947Z,1.00
2023-03-08T22:11:17.922Z,1.00
2023-03-08T22:13:50.200Z,1.00
2023-03-08T22:16:18.211Z,1.00
2023-03-08T22:18:46.772Z,1.00
2023-03-08T22:21:16.401Z,1.00
2023-03-08T22:23:44.509Z,1.00
2023-03-08T22:26:12.822Z,1.00
2023-03-08T22:28:41.204Z,1.00
2023-03-08T22:31:11.615Z,1.00
2023-03-08T22:33:40.324Z,1.00
2023-03-08T22:36:10.587Z,1.00
2023-03-08T22:38:40.844Z,1.00
2023-03-08T22:41:13.753Z,1.00
2023-03-08T22:43:42.233Z,1.00
2023-03-08T22:46:13.246Z,1.00
2023-03-08T22:48:41.360Z,1.00
2023-03-08T22:51:11.447Z,1.00
2023-03-08T22:53:41.925Z,1.00
2023-03-08T22:56:18.725Z,1.00
2023-03-08T22:58:47.119Z,1.00
2023-03-08T23:01:17.091Z,1.00
2023-03-08T23:03:46.190Z,1.00
2023-03-08T23:06:14.305Z,8.10
2023-03-08T23:08:43.779Z,1.00
2023-03-08T23:11:12.176Z,1.10
2023-03-08T23:13:41.222Z,7.60
2023-03-08T23:16:09.744Z,13.30
2023-03-08T23:18:37.865Z,17.40
2023-03-08T23:21:06.940Z,18.60
2023-03-08T23:23:35.344Z,22.70
2023-03-08T23:26:07.051Z,26.10
2023-03-08T23:28:36.443Z,27.20
2023-03-08T23:31:08.948Z,28.10
2023-03-08T23:33:37.105Z,48.30
2023-03-08T23:36:06.028Z,31.30
2023-03-08T23:38:34.143Z,33.40
2023-03-08T23:41:06.728Z,41.60
2023-03-08T23:43:36.087Z,45.20
2023-03-08T23:46:07.292Z,47.30
2023-03-08T23:48:35.993Z,52.80
2023-03-08T23:51:05.106Z,55.70
2023-03-08T23:53:33.403Z,52.40
2023-03-08T23:56:01.866Z,53.40
2023-03-08T23:58:31.721Z,53.40
